createdAt,value
2022-10-19T00:01:15.065Z,1.80
2022-10-19T00:03:42.608Z,1.85
2022-10-19T00:06:26.253Z,2.00
2022-10-19T00:09:03.588Z,1.60
2022-10-19T00:11:31.481Z,1.90
2022-10-19T00:14:01.223Z,2.08
2022-10-19T00:16:29.937Z,1.50
2022-10-19T00:18:58.271Z,2.05
2022-10-19T00:21:25.477Z,1.60
2022-10-19T00:23:52.549Z,1.50
2022-10-19T00:26:19.867Z,1.70
2022-10-19T00:28:47.277Z,1.70
2022-10-19T00:31:16.207Z,1.70
2022-10-19T00:33:44.528Z,1.70
2022-10-19T00:36:16.849Z,1.83
2022-10-19T00:38:44.051Z,1.80
2022-10-19T00:41:11.251Z,2.42
2022-10-19T00:44:14.091Z,1.80
2022-10-19T00:46:42.795Z,1.90
2022-10-19T00:49:18.274Z,2.03
2022-10-19T00:51:47.214Z,1.65
2022-10-19T00:54:14.624Z,2.28
2022-10-19T00:56:42.892Z,1.70
2022-10-19T00:59:10.141Z,1.75
2022-10-19T01:01:39.799Z,1.70
2022-10-19T01:04:07.016Z,2.10
2022-10-19T01:06:34.142Z,1.42
2022-10-19T01:09:01.769Z,1.30
2022-10-19T01:11:52.523Z,1.95
2022-10-19T01:14:47.644Z,1.45
2022-10-19T01:17:59.932Z,1.42
2022-10-19T01:20:30.836Z,1.50
2022-10-19T01:23:40.422Z,1.35
2022-10-19T01:26:14.693Z,1.63
2022-10-19T01:28:54.265Z,1.63
2022-10-19T01:31:29.836Z,1.85
2022-10-19T01:34:09.054Z,1.20
2022-10-19T01:36:39.378Z,1.70
2022-10-19T01:39:44.215Z,1.42
2022-10-19T01:42:15.452Z,1.70
2022-10-19T01:44:53.503Z,1.30
2022-10-19T01:47:28.338Z,2.17
2022-10-19T01:50:10.395Z,1.52
2022-10-19T01:52:37.848Z,1.27
2022-10-19T01:55:05.430Z,1.60
2022-10-19T01:57:38.917Z,1.52
2022-10-19T02:00:07.677Z,1.60
2022-10-19T02:02:43.385Z,1.60
2022-10-19T02:05:10.542Z,1.60
2022-10-19T02:07:38.114Z,1.40
2022-10-19T02:10:05.986Z,1.45
2022-10-19T02:12:33.402Z,1.20
2022-10-19T02:15:10.412Z,1.95
2022-10-19T02:17:40.882Z,1.73
2022-10-19T02:22:35.525Z,1.80
2022-10-19T02:25:03.542Z,1.80
2022-10-19T02:27:33.790Z,1.90
2022-10-19T02:30:04.000Z,2.42
2022-10-19T02:32:31.851Z,2.78
2022-10-19T02:34:59.819Z,2.15
2022-10-19T02:37:27.206Z,2.75
2022-10-19T02:39:54.353Z,2.08
2022-10-19T02:42:39.009Z,1.77
2022-10-19T02:45:10.826Z,1.65
2022-10-19T02:47:43.031Z,1.38
2022-10-19T02:50:10.488Z,1.38
2022-10-19T02:52:41.178Z,1.67
2022-10-19T02:55:08.790Z,1.40
2022-10-19T02:57:36.423Z,1.40
2022-10-19T03:00:05.862Z,1.58
2022-10-19T03:02:34.636Z,1.40
2022-10-19T03:05:01.848Z,1.40
2022-10-19T03:07:28.929Z,1.83
2022-10-19T03:09:56.033Z,1.77
2022-10-19T03:12:23.439Z,1.83
2022-10-19T03:14:50.515Z,1.48
2022-10-19T03:17:17.648Z,1.52
2022-10-19T03:19:44.939Z,1.52
2022-10-19T03:22:13.951Z,1.40
2022-10-19T03:24:41.500Z,2.10
2022-10-19T03:27:08.794Z,1.80
2022-10-19T03:29:35.894Z,1.90
2022-10-19T03:32:03.000Z,2.45
2022-10-19T03:34:30.660Z,3.28
2022-10-19T03:36:59.820Z,4.40
2022-10-19T03:39:27.082Z,4.70
2022-10-19T03:41:54.205Z,5.60
2022-10-19T03:44:21.346Z,6.07
2022-10-19T03:46:48.609Z,6.03
2022-10-19T03:49:15.815Z,5.70
2022-10-19T03:51:42.961Z,5.97
2022-10-19T03:54:15.069Z,5.68
2022-10-19T03:56:42.421Z,4.55
2022-10-19T03:59:12.643Z,4.68
2022-10-19T04:01:41.193Z,5.00
2022-10-19T04:04:11.606Z,4.55
2022-10-19T04:06:39.923Z,4.45
2022-10-19T04:09:07.438Z,3.60
2022-10-19T04:11:35.004Z,3.70
2022-10-19T04:14:02.593Z,3.90
2022-10-19T04:16:33.340Z,4.03
2022-10-19T04:19:01.006Z,3.40
2022-10-19T04:21:29.035Z,2.75
2022-10-19T04:24:01.500Z,2.83
2022-10-19T04:26:28.756Z,2.22
2022-10-19T04:28:58.593Z,2.40
2022-10-19T04:31:26.216Z,3.10
2022-10-19T04:33:53.326Z,2.30
2022-10-19T04:36:20.477Z,2.38
2022-10-19T04:38:47.701Z,2.28
2022-10-19T04:41:16.419Z,2.20
2022-10-19T04:43:45.403Z,2.17
2022-10-19T04:46:17.638Z,2.28
2022-10-19T04:48:45.497Z,2.10
2022-10-19T04:51:12.870Z,2.80
2022-10-19T04:53:40.534Z,2.35
2022-10-19T04:56:08.991Z,2.20
2022-10-19T04:58:36.201Z,2.30
2022-10-19T05:01:10.319Z,3.13
2022-10-19T05:03:37.461Z,2.40
2022-10-19T05:06:04.889Z,2.92
2022-10-19T05:08:32.323Z,2.65
2022-10-19T05:11:06.708Z,3.38
2022-10-19T05:13:34.205Z,2.45
2022-10-19T05:16:02.148Z,1.98
2022-10-19T05:18:29.748Z,2.58
2022-10-19T05:21:10.846Z,2.70
2022-10-19T05:23:40.412Z,3.60
2022-10-19T05:26:15.642Z,2.83
2022-10-19T05:28:42.769Z,2.70
2022-10-19T05:31:18.119Z,2.67
2022-10-19T05:33:45.745Z,3.40
2022-10-19T05:36:32.558Z,2.72
2022-10-19T05:39:06.679Z,3.03
2022-10-19T05:41:33.989Z,3.38
2022-10-19T05:44:02.295Z,2.95
2022-10-19T05:46:29.988Z,3.00
2022-10-19T05:48:57.670Z,3.00
2022-10-19T05:51:25.255Z,2.70
2022-10-19T05:53:53.644Z,2.78
2022-10-19T05:56:22.514Z,2.33
2022-10-19T05:58:49.957Z,2.88
2022-10-19T06:01:19.106Z,2.67
2022-10-19T06:03:46.880Z,2.50
2022-10-19T06:06:13.970Z,2.70
2022-10-19T06:08:41.055Z,2.95
2022-10-19T06:11:10.119Z,2.75
2022-10-19T06:13:37.782Z,2.65
2022-10-19T06:16:06.206Z,2.63
2022-10-19T06:18:33.911Z,2.95
2022-10-19T06:21:05.170Z,2.50
2022-10-19T06:23:35.614Z,2.65
2022-10-19T06:28:33.681Z,3.92
2022-10-19T06:31:01.157Z,2.92
2022-10-19T06:33:28.426Z,2.47
2022-10-19T06:35:55.701Z,2.67
2022-10-19T06:38:23.529Z,3.42
2022-10-19T06:40:50.786Z,3.15
2022-10-19T06:43:18.129Z,2.72
2022-10-19T06:45:45.543Z,2.70
2022-10-19T06:48:12.664Z,2.85
2022-10-19T06:50:59.860Z,2.90
2022-10-19T06:53:29.788Z,2.55
2022-10-19T06:56:01.038Z,3.20
2022-10-19T06:58:28.374Z,2.63
2022-10-19T07:00:59.766Z,2.22
2022-10-19T07:03:28.069Z,3.22
2022-10-19T07:06:02.587Z,2.40
2022-10-19T07:08:31.187Z,2.55
2022-10-19T07:11:02.889Z,2.88
2022-10-19T07:13:30.927Z,2.42
2022-10-19T07:16:06.961Z,3.00
2022-10-19T07:18:34.955Z,3.17
2022-10-19T07:21:03.345Z,1.92
2022-10-19T07:23:31.738Z,2.55
2022-10-19T07:26:04.052Z,2.70
2022-10-19T07:28:35.360Z,1.98
2022-10-19T07:31:10.140Z,2.30
2022-10-19T07:33:37.657Z,2.22
2022-10-19T07:36:07.150Z,2.67
2022-10-19T07:38:34.295Z,2.20
2022-10-19T07:41:07.125Z,2.63
2022-10-19T07:43:34.386Z,2.75
2022-10-19T07:46:02.762Z,2.55
2022-10-19T07:48:30.066Z,3.08
2022-10-19T07:50:57.318Z,2.35
2022-10-19T07:53:24.614Z,2.17
2022-10-19T07:55:52.336Z,3.25
2022-10-19T07:58:19.415Z,2.10
2022-10-19T08:00:46.592Z,2.45
2022-10-19T08:06:05.558Z,2.30
2022-10-19T08:08:32.834Z,2.15
2022-10-19T08:11:10.096Z,2.17
2022-10-19T08:13:37.387Z,2.20
2022-10-19T08:16:04.917Z,2.30
2022-10-19T08:21:04.767Z,2.47
2022-10-19T08:23:31.845Z,3.33
2022-10-19T08:25:59.781Z,2.85
2022-10-19T08:28:27.004Z,2.55
2022-10-19T08:30:58.390Z,3.20
2022-10-19T08:33:26.247Z,2.75
2022-10-19T08:36:11.594Z,3.00
2022-10-19T08:38:38.936Z,2.83
2022-10-19T08:41:26.750Z,3.00
2022-10-19T08:43:54.099Z,3.10
2022-10-19T08:49:03.834Z,2.53
2022-10-19T08:51:34.378Z,2.83
2022-10-19T08:54:02.702Z,2.83
2022-10-19T08:56:51.073Z,2.63
2022-10-19T08:59:18.412Z,3.22
2022-10-19T09:01:59.019Z,2.53
2022-10-19T09:04:38.216Z,3.67
2022-10-19T09:07:23.798Z,3.00
2022-10-19T09:10:10.356Z,2.85
2022-10-19T09:12:40.612Z,3.15
2022-10-19T09:17:35.550Z,2.90
2022-10-19T09:20:14.972Z,3.00
2022-10-19T09:22:42.390Z,2.88
2022-10-19T09:25:22.276Z,2.38
2022-10-19T09:27:53.506Z,2.40
2022-10-19T09:30:22.951Z,2.30
2022-10-19T09:33:03.450Z,2.83
2022-10-19T09:35:39.568Z,2.58
2022-10-19T09:38:07.379Z,3.17
2022-10-19T09:40:35.268Z,3.00
2022-10-19T09:43:19.164Z,2.83
2022-10-19T09:45:53.544Z,2.60
2022-10-19T09:48:40.161Z,3.00
2022-10-19T09:51:12.314Z,3.20
2022-10-19T09:53:46.123Z,2.83
2022-10-19T09:56:24.643Z,2.92
2022-10-19T09:58:57.595Z,2.80
2022-10-19T10:01:41.914Z,2.90
2022-10-19T10:04:17.230Z,3.60
2022-10-19T10:06:46.509Z,3.28
2022-10-19T10:09:18.108Z,3.67
2022-10-19T10:12:18.011Z,2.50
2022-10-19T10:14:48.512Z,2.65
2022-10-19T10:17:21.092Z,2.70
2022-10-19T10:20:02.777Z,3.03
2022-10-19T10:22:44.933Z,2.97
2022-10-19T10:25:16.996Z,3.03
2022-10-19T10:27:58.432Z,3.03
2022-10-19T10:30:25.743Z,2.63
2022-10-19T10:32:57.991Z,2.97
2022-10-19T10:35:35.539Z,2.60
2022-10-19T10:38:14.885Z,2.40
2022-10-19T10:41:20.252Z,2.93
2022-10-19T10:44:41.157Z,2.85
2022-10-19T10:47:21.481Z,2.70
2022-10-19T10:50:21.915Z,3.25
2022-10-19T10:53:00.742Z,3.00
2022-10-19T10:55:28.775Z,2.92
2022-10-19T10:58:18.880Z,2.75
2022-10-19T11:00:46.402Z,3.10
2022-10-19T11:03:16.239Z,3.20
2022-10-19T11:05:48.182Z,2.70
2022-10-19T11:08:38.512Z,5.28
2022-10-19T11:11:10.796Z,3.08
2022-10-19T11:13:53.377Z,3.05
2022-10-19T11:16:24.374Z,2.80
2022-10-19T11:19:16.040Z,3.53
2022-10-19T11:22:04.251Z,2.42
2022-10-19T11:24:49.060Z,2.85
2022-10-19T11:27:30.322Z,2.58
2022-10-19T11:30:13.950Z,2.72
2022-10-19T11:32:59.776Z,2.50
2022-10-19T11:35:47.675Z,2.92
2022-10-19T11:38:40.589Z,3.08
2022-10-19T11:41:30.975Z,2.80
2022-10-19T11:44:19.667Z,2.42
2022-10-19T11:47:05.001Z,2.72
2022-10-19T11:49:39.834Z,2.78
2022-10-19T11:52:18.708Z,3.88
2022-10-19T11:55:14.030Z,2.72
2022-10-19T11:57:53.458Z,2.38
2022-10-19T12:00:38.263Z,2.83
2022-10-19T12:03:25.609Z,3.22
2022-10-19T12:06:12.109Z,2.60
2022-10-19T12:08:42.664Z,3.05
2022-10-19T12:11:54.507Z,3.03
2022-10-19T12:14:31.108Z,2.95
2022-10-19T12:17:06.027Z,2.40
2022-10-19T12:19:39.578Z,3.22
2022-10-19T12:22:07.615Z,3.65
2022-10-19T12:24:34.799Z,3.30
2022-10-19T12:27:01.969Z,2.92
2022-10-19T12:29:36.683Z,4.60
2022-10-19T12:32:04.044Z,2.53
2022-10-19T12:38:05.749Z,3.30
2022-10-19T12:40:58.861Z,2.90
2022-10-19T12:43:36.734Z,3.08
2022-10-19T12:46:49.904Z,2.92
2022-10-19T12:49:50.743Z,3.10
2022-10-19T12:52:48.891Z,3.28
2022-10-19T12:55:16.179Z,2.92
2022-10-19T12:57:48.412Z,2.95
2022-10-19T13:00:26.020Z,2.63
2022-10-19T13:03:16.360Z,3.08
2022-10-19T13:08:33.204Z,2.65
2022-10-19T13:11:10.244Z,3.00
2022-10-19T13:14:07.530Z,2.60
2022-10-19T13:16:37.838Z,2.40
2022-10-19T13:19:06.223Z,2.58
2022-10-19T13:21:46.072Z,2.80
2022-10-19T13:24:25.453Z,3.20
2022-10-19T13:27:11.068Z,3.20
2022-10-19T13:29:42.038Z,2.70
2022-10-19T13:32:38.444Z,2.88
2022-10-19T13:35:21.227Z,2.83
2022-10-19T13:38:18.595Z,2.50
2022-10-19T13:40:50.002Z,2.85
2022-10-19T13:43:22.854Z,4.00
2022-10-19T13:45:59.902Z,2.92
2022-10-19T13:48:56.417Z,3.00
2022-10-19T13:51:27.866Z,2.88
2022-10-19T13:54:25.921Z,3.35
2022-10-19T13:57:19.173Z,3.72
2022-10-19T14:00:20.478Z,2.90
2022-10-19T14:03:19.558Z,2.72
2022-10-19T14:06:05.213Z,3.30
2022-10-19T14:08:58.110Z,2.88
2022-10-19T14:11:32.732Z,3.28
2022-10-19T14:14:18.484Z,3.40
2022-10-19T14:16:59.646Z,2.97
2022-10-19T14:19:31.079Z,2.70
2022-10-19T14:22:03.021Z,3.00
2022-10-19T14:24:35.130Z,3.03
2022-10-19T14:27:08.980Z,3.20
2022-10-19T14:29:49.646Z,3.30
2022-10-19T14:32:17.674Z,3.90
2022-10-19T14:34:46.314Z,3.70
2022-10-19T14:37:18.368Z,3.85
2022-10-19T14:40:07.687Z,3.20
2022-10-19T14:42:42.537Z,2.60
2022-10-19T14:45:15.137Z,3.25
2022-10-19T14:47:56.846Z,3.17
2022-10-19T14:50:35.120Z,2.92
2022-10-19T14:53:17.136Z,4.10
2022-10-19T14:55:44.263Z,4.88
2022-10-19T14:58:18.915Z,4.30
2022-10-19T15:00:52.124Z,4.25
2022-10-19T15:03:42.871Z,3.78
2022-10-19T15:06:24.458Z,3.97
2022-10-19T15:09:30.245Z,3.75
2022-10-19T15:12:12.378Z,4.40
2022-10-19T15:14:52.194Z,3.80
2022-10-19T15:23:56.268Z,3.40
2022-10-19T15:26:42.204Z,4.03
2022-10-19T15:29:37.516Z,4.50
2022-10-19T15:32:33.932Z,3.80
2022-10-19T15:35:51.943Z,4.03
2022-10-19T15:38:34.512Z,4.38
2022-10-19T15:41:20.293Z,3.75
2022-10-19T15:43:54.151Z,3.67
2022-10-19T15:46:34.548Z,4.22
2022-10-19T15:49:25.776Z,3.65
2022-10-19T15:51:54.157Z,4.47
2022-10-19T15:54:22.038Z,4.18
2022-10-19T15:56:52.527Z,4.43
2022-10-19T15:59:21.515Z,4.00
2022-10-19T16:01:52.634Z,4.28
2022-10-19T16:04:26.981Z,5.22
2022-10-19T16:06:54.084Z,3.90
2022-10-19T16:09:21.736Z,4.30
2022-10-19T16:11:50.333Z,4.32
2022-10-19T16:16:44.487Z,4.22
2022-10-19T16:19:12.292Z,3.83
2022-10-19T16:21:39.638Z,4.50
2022-10-19T16:24:06.956Z,4.78
2022-10-19T16:26:34.294Z,4.20
2022-10-19T16:29:07.378Z,4.15
2022-10-19T16:31:34.500Z,3.88
2022-10-19T16:34:01.865Z,4.47
2022-10-19T16:36:29.775Z,3.80
2022-10-19T16:38:59.783Z,4.35
2022-10-19T16:41:27.140Z,4.40
2022-10-19T16:43:55.259Z,4.00
2022-10-19T16:46:23.167Z,3.90
2022-10-19T16:48:50.480Z,4.68
2022-10-19T16:51:26.627Z,3.90
2022-10-19T16:53:57.247Z,4.32
2022-10-19T16:56:25.402Z,3.83
2022-10-19T16:59:01.281Z,5.20
2022-10-19T17:01:31.520Z,4.70
2022-10-19T17:06:26.480Z,4.05
2022-10-19T17:09:30.180Z,4.80
2022-10-19T17:11:42.748Z,5.25
2022-10-19T17:14:12.305Z,4.18
2022-10-19T17:16:39.896Z,4.53
2022-10-19T17:19:09.642Z,4.32
2022-10-19T17:21:38.851Z,3.92
2022-10-19T17:24:07.864Z,3.92
2022-10-19T17:26:38.234Z,5.15
2022-10-19T17:29:06.175Z,6.50
2022-10-19T17:31:33.704Z,5.10
2022-10-19T17:34:06.336Z,5.72
2022-10-19T17:36:42.356Z,5.68
2022-10-19T17:39:25.539Z,5.07
2022-10-19T17:42:04.433Z,5.80
2022-10-19T17:44:34.385Z,4.90
2022-10-19T17:47:04.454Z,5.22
2022-10-19T17:49:32.866Z,4.97
2022-10-19T17:52:03.602Z,4.75
2022-10-19T17:54:48.573Z,4.97
2022-10-19T17:57:37.887Z,5.05
2022-10-19T18:00:09.971Z,5.22
2022-10-19T18:02:41.034Z,4.88
2022-10-19T18:05:09.268Z,5.47
2022-10-19T18:07:36.963Z,5.65
2022-10-19T18:10:04.713Z,4.95
2022-10-19T18:12:32.023Z,5.95
2022-10-19T18:14:59.913Z,6.28
2022-10-19T18:17:27.919Z,5.90
2022-10-19T18:19:55.648Z,5.72
2022-10-19T18:22:23.509Z,7.05
2022-10-19T18:24:50.811Z,6.18
2022-10-19T18:27:18.073Z,5.53
2022-10-19T18:29:45.536Z,5.80
2022-10-19T18:32:13.031Z,6.18
2022-10-19T18:34:40.239Z,6.18
2022-10-19T18:37:07.535Z,5.15
2022-10-19T18:39:34.963Z,6.20
2022-10-19T18:42:02.397Z,7.03
2022-10-19T18:44:33.504Z,6.05
2022-10-19T18:47:04.312Z,6.72
2022-10-19T18:49:31.574Z,6.68
2022-10-19T18:51:58.797Z,6.95
2022-10-19T18:54:29.067Z,6.07
2022-10-19T18:56:56.931Z,6.40
2022-10-19T18:59:25.147Z,6.53
2022-10-19T19:01:54.869Z,6.22
2022-10-19T19:04:21.978Z,6.85
2022-10-19T19:06:49.810Z,6.72
2022-10-19T19:09:19.095Z,6.25
2022-10-19T19:11:46.345Z,7.53
2022-10-19T19:14:15.179Z,6.43
2022-10-19T19:16:42.920Z,7.15
2022-10-19T19:19:11.221Z,6.80
2022-10-19T19:21:38.627Z,7.07
2022-10-19T19:24:07.033Z,7.50
2022-10-19T19:26:38.042Z,6.93
2022-10-19T19:29:05.647Z,7.72
2022-10-19T19:31:32.924Z,7.60
2022-10-19T19:34:01.569Z,7.28
2022-10-19T19:36:29.046Z,7.28
2022-10-19T19:39:00.077Z,7.38
2022-10-19T19:41:29.092Z,8.43
2022-10-19T19:44:00.625Z,7.65
2022-10-19T19:46:27.961Z,8.38
2022-10-19T19:49:00.196Z,7.38
2022-10-19T19:51:30.896Z,7.10
2022-10-19T19:54:02.583Z,7.30
2022-10-19T19:56:35.667Z,8.23
2022-10-19T19:59:05.446Z,8.23
2022-10-19T20:01:36.025Z,6.72
2022-10-19T20:06:36.491Z,9.15
2022-10-19T20:09:04.148Z,7.78
2022-10-19T20:11:37.155Z,7.88
2022-10-19T20:14:21.045Z,7.50
2022-10-19T20:19:43.831Z,7.30
2022-10-19T20:22:11.419Z,8.07
2022-10-19T20:25:07.590Z,7.38
2022-10-19T20:27:51.683Z,7.10
2022-10-19T20:34:20.583Z,7.70
2022-10-19T20:40:54.768Z,8.03
2022-10-19T20:43:50.675Z,8.13
2022-10-19T20:46:37.803Z,7.50
2022-10-19T20:49:13.851Z,8.05
2022-10-19T20:51:44.031Z,8.65
2022-10-19T20:54:15.001Z,8.48
2022-10-19T20:56:42.482Z,9.10
2022-10-19T20:59:12.993Z,8.23
2022-10-19T21:04:09.036Z,8.85
2022-10-19T21:06:39.324Z,8.35
2022-10-19T21:11:35.812Z,8.75
2022-10-19T21:18:19.860Z,8.45
2022-10-19T21:33:27.150Z,8.70
2022-10-19T21:40:29.421Z,8.02
2022-10-19T21:49:40.065Z,8.20
2022-10-19T22:59:37.372Z,9.07
2022-10-19T23:05:32.483Z,10.68
2022-10-19T23:08:33.914Z,10.55
2022-10-19T23:13:52.360Z,8.90
2022-10-19T23:16:25.933Z,9.43
2022-10-19T23:18:54.747Z,10.48
2022-10-19T23:21:25.792Z,9.55
2022-10-19T23:23:55.561Z,10.05
2022-10-19T23:26:26.595Z,9.93
2022-10-19T23:28:55.148Z,9.32
2022-10-19T23:31:26.992Z,9.75
2022-10-19T23:33:57.469Z,9.05
2022-10-19T23:36:38.742Z,8.68
2022-10-19T23:39:24.517Z,8.88
2022-10-19T23:45:47.866Z,9.40
